sensor_id;sensor_type;location;lat;lon;timestamp;temperature;humidity
53498;DHT22;39382;47.168;16.008;2024-03-06T00:00:00;3.30;99.90
53498;DHT22;39382;47.168;16.008;2024-03-06T00:02:25;3.30;99.90
53498;DHT22;39382;47.168;16.008;2024-03-06T00:04:51;3.30;99.90
53498;DHT22;39382;47.168;16.008;2024-03-06T00:07:17;3.30;99.90
53498;DHT22;39382;47.168;16.008;2024-03-06T00:09:43;3.20;99.90
53498;DHT22;39382;47.168;16.008;2024-03-06T00:12:08;3.20;99.90
53498;DHT22;39382;47.168;16.008;2024-03-06T00:14:34;3.10;99.90
53498;DHT22;39382;47.168;16.008;2024-03-06T00:17:02;3.10;99.90
53498;DHT22;39382;47.168;16.008;2024-03-06T00:19:29;3.10;99.90
53498;DHT22;39382;47.168;16.008;2024-03-06T00:21:55;3.10;99.90
53498;DHT22;39382;47.168;16.008;2024-03-06T00:24:21;3.00;99.90
53498;DHT22;39382;47.168;16.008;2024-03-06T00:26:48;3.00;99.90
53498;DHT22;39382;47.168;16.008;2024-03-06T00:29:14;3.00;99.90
53498;DHT22;39382;47.168;16.008;2024-03-06T00:31:44;2.90;99.90
53498;DHT22;39382;47.168;16.008;2024-03-06T00:34:10;2.90;99.90
53498;DHT22;39382;47.168;16.008;2024-03-06T00:36:37;2.90;99.90
53498;DHT22;39382;47.168;16.008;2024-03-06T00:39:03;2.90;99.90
53498;DHT22;39382;47.168;16.008;2024-03-06T00:41:30;3.00;99.90
53498;DHT22;39382;47.168;16.008;2024-03-06T00:43:56;2.90;99.90
53498;DHT22;39382;47.168;16.008;2024-03-06T00:46:22;2.90;99.90
53498;DHT22;39382;47.168;16.008;2024-03-06T00:48:47;2.90;99.90
53498;DHT22;39382;47.168;16.008;2024-03-06T00:51:13;2.80;99.90
53498;DHT22;39382;47.168;16.008;2024-03-06T00:53:39;2.70;99.90
53498;DHT22;39382;47.168;16.008;2024-03-06T00:56:05;2.70;99.90
53498;DHT22;39382;47.168;16.008;2024-03-06T00:58:30;2.60;99.90
53498;DHT22;39382;47.168;16.008;2024-03-06T01:00:56;2.70;99.90
53498;DHT22;39382;47.168;16.008;2024-03-06T01:03:23;2.70;99.90
53498;DHT22;39382;47.168;16.008;2024-03-06T01:05:49;2.60;99.90
53498;DHT22;39382;47.168;16.008;2024-03-06T01:08:15;2.70;99.90
53498;DHT22;39382;47.168;16.008;2024-03-06T01:10:43;2.60;99.90
53498;DHT22;39382;47.168;16.008;2024-03-06T01:13:09;2.60;99.90
53498;DHT22;39382;47.168;16.008;2024-03-06T01:15:36;2.50;99.90
53498;DHT22;39382;47.168;16.008;2024-03-06T01:18:02;2.50;99.90
53498;DHT22;39382;47.168;16.008;2024-03-06T01:20:29;2.50;99.90
53498;DHT22;39382;47.168;16.008;2024-03-06T01:22:54;2.50;99.90
53498;DHT22;39382;47.168;16.008;2024-03-06T01:25:20;2.40;99.90
53498;DHT22;39382;47.168;16.008;2024-03-06T01:27:48;2.40;99.90
53498;DHT22;39382;47.168;16.008;2024-03-06T01:30:13;2.30;99.90
53498;DHT22;39382;47.168;16.008;2024-03-06T01:32:39;2.30;99.90
53498;DHT22;39382;47.168;16.008;2024-03-06T01:35:05;2.30;99.90
53498;DHT22;39382;47.168;16.008;2024-03-06T01:37:32;2.30;99.90
53498;DHT22;39382;47.168;16.008;2024-03-06T01:39:57;2.20;99.90
53498;DHT22;39382;47.168;16.008;2024-03-06T01:42:23;2.20;99.90
53498;DHT22;39382;47.168;16.008;2024-03-06T01:44:49;2.20;99.90
53498;DHT22;39382;47.168;16.008;2024-03-06T01:47:15;2.30;99.90
53498;DHT22;39382;47.168;16.008;2024-03-06T01:49:41;2.30;99.90
53498;DHT22;39382;47.168;16.008;2024-03-06T01:52:09;2.30;99.90
53498;DHT22;39382;47.168;16.008;2024-03-06T01:54:37;2.20;99.90
53498;DHT22;39382;47.168;16.008;2024-03-06T01:57:03;2.20;99.90
53498;DHT22;39382;47.168;16.008;2024-03-06T01:59:30;2.20;99.90
53498;DHT22;39382;47.168;16.008;2024-03-06T02:01:56;2.10;99.90
53498;DHT22;39382;47.168;16.008;2024-03-06T02:04:22;2.20;99.90
53498;DHT22;39382;47.168;16.008;2024-03-06T02:06:49;2.20;99.90
53498;DHT22;39382;47.168;16.008;2024-03-06T02:09:14;2.10;99.90
53498;DHT22;39382;47.168;16.008;2024-03-06T02:11:40;2.10;99.90
53498;DHT22;39382;47.168;16.008;2024-03-06T02:14:07;2.10;99.90
53498;DHT22;39382;47.168;16.008;2024-03-06T02:16:36;2.20;99.90
53498;DHT22;39382;47.168;16.008;2024-03-06T02:19:01;2.10;99.90
53498;DHT22;39382;47.168;16.008;2024-03-06T02:21:27;2.10;99.90
53498;DHT22;39382;47.168;16.008;2024-03-06T02:23:53;2.10;99.90
53498;DHT22;39382;47.168;16.008;2024-03-06T02:26:20;2.10;99.90
53498;DHT22;39382;47.168;16.008;2024-03-06T02:28:50;2.10;99.90
53498;DHT22;39382;47.168;16.008;2024-03-06T02:31:17;2.20;99.90
53498;DHT22;39382;47.168;16.008;2024-03-06T02:33:46;2.20;99.90
53498;DHT22;39382;47.168;16.008;2024-03-06T02:36:13;2.20;99.90
53498;DHT22;39382;47.168;16.008;2024-03-06T02:38:39;2.20;99.90
53498;DHT22;39382;47.168;16.008;2024-03-06T02:41:05;2.30;99.90
53498;DHT22;39382;47.168;16.008;2024-03-06T02:43:33;2.30;99.90
53498;DHT22;39382;47.168;16.008;2024-03-06T02:45:58;2.20;99.90
53498;DHT22;39382;47.168;16.008;2024-03-06T02:48:24;2.20;99.90
53498;DHT22;39382;47.168;16.008;2024-03-06T02:50:50;2.20;99.90
53498;DHT22;39382;47.168;16.008;2024-03-06T02:53:15;2.10;99.90
53498;DHT22;39382;47.168;16.008;2024-03-06T02:55:41;2.00;99.90
53498;DHT22;39382;47.168;16.008;2024-03-06T02:58:07;1.90;99.90
53498;DHT22;39382;47.168;16.008;2024-03-06T03:00:32;1.90;99.90
53498;DHT22;39382;47.168;16.008;2024-03-06T03:02:58;1.90;99.90
53498;DHT22;39382;47.168;16.008;2024-03-06T03:05:24;1.80;99.90
53498;DHT22;39382;47.168;16.008;2024-03-06T03:07:50;1.80;99.90
53498;DHT22;39382;47.168;16.008;2024-03-06T03:10:16;1.80;99.90
53498;DHT22;39382;47.168;16.008;2024-03-06T03:12:42;1.80;99.90
53498;DHT22;39382;47.168;16.008;2024-03-06T03:15:08;1.80;99.90
53498;DHT22;39382;47.168;16.008;2024-03-06T03:17:35;1.80;99.90
53498;DHT22;39382;47.168;16.008;2024-03-06T03:20:01;1.80;99.90
53498;DHT22;39382;47.168;16.008;2024-03-06T03:22:36;1.90;99.90
53498;DHT22;39382;47.168;16.008;2024-03-06T03:25:02;1.90;99.90
53498;DHT22;39382;47.168;16.008;2024-03-06T03:27:28;1.80;99.90
53498;DHT22;39382;47.168;16.008;2024-03-06T03:29:53;1.70;99.90
53498;DHT22;39382;47.168;16.008;2024-03-06T03:32:19;1.70;99.90
53498;DHT22;39382;47.168;16.008;2024-03-06T03:34:45;1.70;99.90
53498;DHT22;39382;47.168;16.008;2024-03-06T03:37:12;1.70;99.90
53498;DHT22;39382;47.168;16.008;2024-03-06T03:39:38;1.70;99.90
53498;DHT22;39382;47.168;16.008;2024-03-06T03:42:03;1.70;99.90
53498;DHT22;39382;47.168;16.008;2024-03-06T03:44:29;1.70;99.90
53498;DHT22;39382;47.168;16.008;2024-03-06T03:46:54;1.80;99.90
53498;DHT22;39382;47.168;16.008;2024-03-06T03:49:20;1.70;99.90
53498;DHT22;39382;47.168;16.008;2024-03-06T03:51:46;1.70;99.90
53498;DHT22;39382;47.168;16.008;2024-03-06T03:54:12;1.60;99.90
53498;DHT22;39382;47.168;16.008;2024-03-06T03:56:38;1.60;99.90
53498;DHT22;39382;47.168;16.008;2024-03-06T03:59:03;1.70;99.90
53498;DHT22;39382;47.168;16.008;2024-03-06T04:01:29;1.80;99.90
53498;DHT22;39382;47.168;16.008;2024-03-06T04:03:54;1.70;99.90
53498;DHT22;39382;47.168;16.008;2024-03-06T04:06:20;1.70;99.90
53498;DHT22;39382;47.168;16.008;2024-03-06T04:08:46;1.70;99.90
53498;DHT22;39382;47.168;16.008;2024-03-06T04:11:11;1.60;99.90
53498;DHT22;39382;47.168;16.008;2024-03-06T04:13:37;1.60;99.90
53498;DHT22;39382;47.168;16.008;2024-03-06T04:16:04;1.60;99.90
53498;DHT22;39382;47.168;16.008;2024-03-06T04:18:31;1.60;99.90
53498;DHT22;39382;47.168;16.008;2024-03-06T04:21:09;1.50;99.90
53498;DHT22;39382;47.168;16.008;2024-03-06T04:23:36;1.50;99.90
53498;DHT22;39382;47.168;16.008;2024-03-06T04:26:02;1.50;99.90
53498;DHT22;39382;47.168;16.008;2024-03-06T04:28:29;1.40;99.90
53498;DHT22;39382;47.168;16.008;2024-03-06T04:30:55;1.40;99.90
53498;DHT22;39382;47.168;16.008;2024-03-06T04:33:20;1.40;99.90
53498;DHT22;39382;47.168;16.008;2024-03-06T04:35:46;1.30;99.90
53498;DHT22;39382;47.168;16.008;2024-03-06T04:38:12;1.30;99.90
53498;DHT22;39382;47.168;16.008;2024-03-06T04:40:37;1.20;99.90
53498;DHT22;39382;47.168;16.008;2024-03-06T04:43:03;1.20;99.90
53498;DHT22;39382;47.168;16.008;2024-03-06T04:45:29;1.20;99.90
53498;DHT22;39382;47.168;16.008;2024-03-06T04:47:55;2.00;99.90
53498;DHT22;39382;47.168;16.008;2024-03-06T04:50:20;1.50;99.90
53498;DHT22;39382;47.168;16.008;2024-03-06T04:52:46;1.60;99.90
53498;DHT22;39382;47.168;16.008;2024-03-06T04:55:12;1.50;99.90
53498;DHT22;39382;47.168;16.008;2024-03-06T04:57:42;1.50;99.90
53498;DHT22;39382;47.168;16.008;2024-03-06T05:00:08;1.50;99.90
53498;DHT22;39382;47.168;16.008;2024-03-06T05:02:34;1.40;99.90
53498;DHT22;39382;47.168;16.008;2024-03-06T05:05:01;1.30;99.90
53498;DHT22;39382;47.168;16.008;2024-03-06T05:07:28;1.30;99.90
53498;DHT22;39382;47.168;16.008;2024-03-06T05:09:55;1.20;99.90
53498;DHT22;39382;47.168;16.008;2024-03-06T05:12:20;1.30;99.90
53498;DHT22;39382;47.168;16.008;2024-03-06T05:14:46;1.30;99.90
53498;DHT22;39382;47.168;16.008;2024-03-06T05:17:11;1.40;99.90
53498;DHT22;39382;47.168;16.008;2024-03-06T05:19:37;1.40;99.90
53498;DHT22;39382;47.168;16.008;2024-03-06T05:22:03;1.50;99.90
53498;DHT22;39382;47.168;16.008;2024-03-06T05:24:29;1.50;99.90
53498;DHT22;39382;47.168;16.008;2024-03-06T05:26:55;1.40;99.90
53498;DHT22;39382;47.168;16.008;2024-03-06T05:29:20;1.40;99.90
53498;DHT22;39382;47.168;16.008;2024-03-06T05:31:46;1.40;99.90
53498;DHT22;39382;47.168;16.008;2024-03-06T05:34:12;1.40;99.90
53498;DHT22;39382;47.168;16.008;2024-03-06T05:36:37;1.50;99.90
53498;DHT22;39382;47.168;16.008;2024-03-06T05:39:03;1.50;99.90
53498;DHT22;39382;47.168;16.008;2024-03-06T05:41:33;1.50;99.90
53498;DHT22;39382;47.168;16.008;2024-03-06T05:43:59;1.50;99.90
53498;DHT22;39382;47.168;16.008;2024-03-06T05:46:24;1.50;99.90
53498;DHT22;39382;47.168;16.008;2024-03-06T05:48:51;1.60;99.90
53498;DHT22;39382;47.168;16.008;2024-03-06T05:51:17;1.70;99.90
53498;DHT22;39382;47.168;16.008;2024-03-06T05:53:43;1.70;99.90
53498;DHT22;39382;47.168;16.008;2024-03-06T05:56:09;1.70;99.90
53498;DHT22;39382;47.168;16.008;2024-03-06T05:58:35;1.70;99.90
53498;DHT22;39382;47.168;16.008;2024-03-06T06:01:01;1.80;99.90
53498;DHT22;39382;47.168;16.008;2024-03-06T06:03:31;1.90;99.90
53498;DHT22;39382;47.168;16.008;2024-03-06T06:05:58;2.00;99.90
53498;DHT22;39382;47.168;16.008;2024-03-06T06:08:24;1.90;99.90
53498;DHT22;39382;47.168;16.008;2024-03-06T06:10:50;2.00;99.90
53498;DHT22;39382;47.168;16.008;2024-03-06T06:13:20;2.00;99.90
53498;DHT22;39382;47.168;16.008;2024-03-06T06:15:46;2.10;99.90
53498;DHT22;39382;47.168;16.008;2024-03-06T06:18:12;2.20;99.90
53498;DHT22;39382;47.168;16.008;2024-03-06T06:20:40;2.30;99.90
53498;DHT22;39382;47.168;16.008;2024-03-06T06:23:05;2.30;99.90
53498;DHT22;39382;47.168;16.008;2024-03-06T06:25:31;2.40;99.90
53498;DHT22;39382;47.168;16.008;2024-03-06T06:27:57;2.40;99.90
53498;DHT22;39382;47.168;16.008;2024-03-06T06:30:22;2.40;99.90
53498;DHT22;39382;47.168;16.008;2024-03-06T06:32:48;2.50;99.90
53498;DHT22;39382;47.168;16.008;2024-03-06T06:35:14;6.20;99.90
53498;DHT22;39382;47.168;16.008;2024-03-06T06:37:39;6.80;99.90
53498;DHT22;39382;47.168;16.008;2024-03-06T06:40:07;6.40;99.90
53498;DHT22;39382;47.168;16.008;2024-03-06T06:42:34;5.60;99.90
53498;DHT22;39382;47.168;16.008;2024-03-06T06:44:59;4.90;99.90
53498;DHT22;39382;47.168;16.008;2024-03-06T06:47:26;4.50;99.90
53498;DHT22;39382;47.168;16.008;2024-03-06T06:49:52;4.20;99.90
53498;DHT22;39382;47.168;16.008;2024-03-06T06:52:18;3.90;99.90
53498;DHT22;39382;47.168;16.008;2024-03-06T06:54:44;3.80;99.90
53498;DHT22;39382;47.168;16.008;2024-03-06T06:57:10;3.60;99.90
53498;DHT22;39382;47.168;16.008;2024-03-06T06:59:36;3.60;99.90
53498;DHT22;39382;47.168;16.008;2024-03-06T07:02:02;3.50;99.90
53498;DHT22;39382;47.168;16.008;2024-03-06T07:04:28;3.50;99.90
53498;DHT22;39382;47.168;16.008;2024-03-06T07:06:53;3.40;99.90
53498;DHT22;39382;47.168;16.008;2024-03-06T07:09:19;3.40;99.90
53498;DHT22;39382;47.168;16.008;2024-03-06T07:11:45;3.50;99.90
53498;DHT22;39382;47.168;16.008;2024-03-06T07:14:14;3.60;99.90
53498;DHT22;39382;47.168;16.008;2024-03-06T07:16:43;3.80;99.90
53498;DHT22;39382;47.168;16.008;2024-03-06T07:19:09;3.90;99.90
53498;DHT22;39382;47.168;16.008;2024-03-06T07:21:35;4.00;99.90
53498;DHT22;39382;47.168;16.008;2024-03-06T07:24:00;4.00;99.90
53498;DHT22;39382;47.168;16.008;2024-03-06T07:26:26;4.20;99.90
53498;DHT22;39382;47.168;16.008;2024-03-06T07:28:54;4.20;99.90
53498;DHT22;39382;47.168;16.008;2024-03-06T07:31:20;4.40;99.90
53498;DHT22;39382;47.168;16.008;2024-03-06T07:33:45;4.50;99.90
53498;DHT22;39382;47.168;16.008;2024-03-06T07:36:11;4.70;99.90
53498;DHT22;39382;47.168;16.008;2024-03-06T07:38:36;4.80;99.90
53498;DHT22;39382;47.168;16.008;2024-03-06T07:41:02;4.90;99.90
53498;DHT22;39382;47.168;16.008;2024-03-06T07:43:28;5.00;99.90
53498;DHT22;39382;47.168;16.008;2024-03-06T07:45:53;5.20;99.90
53498;DHT22;39382;47.168;16.008;2024-03-06T07:48:19;5.30;99.90
53498;DHT22;39382;47.168;16.008;2024-03-06T07:50:45;5.40;99.90
53498;DHT22;39382;47.168;16.008;2024-03-06T07:53:10;5.50;99.90
53498;DHT22;39382;47.168;16.008;2024-03-06T07:55:36;5.60;99.90
53498;DHT22;39382;47.168;16.008;2024-03-06T07:58:04;5.70;99.90
53498;DHT22;39382;47.168;16.008;2024-03-06T08:00:30;5.80;99.90
53498;DHT22;39382;47.168;16.008;2024-03-06T08:02:56;6.00;99.90
53498;DHT22;39382;47.168;16.008;2024-03-06T08:05:22;6.10;99.90
53498;DHT22;39382;47.168;16.008;2024-03-06T08:07:48;6.20;99.90
53498;DHT22;39382;47.168;16.008;2024-03-06T08:10:14;6.20;99.90
53498;DHT22;39382;47.168;16.008;2024-03-06T08:12:43;6.40;99.90
53498;DHT22;39382;47.168;16.008;2024-03-06T08:15:13;6.50;99.90
53498;DHT22;39382;47.168;16.008;2024-03-06T08:17:40;6.70;99.90
53498;DHT22;39382;47.168;16.008;2024-03-06T08:20:07;6.80;99.90
53498;DHT22;39382;47.168;16.008;2024-03-06T08:22:38;6.90;99.90
53498;DHT22;39382;47.168;16.008;2024-03-06T08:27:30;7.10;99.90
53498;DHT22;39382;47.168;16.008;2024-03-06T08:29:56;7.30;99.90
53498;DHT22;39382;47.168;16.008;2024-03-06T08:32:21;7.50;99.90
53498;DHT22;39382;47.168;16.008;2024-03-06T08:34:48;7.60;99.90
53498;DHT22;39382;47.168;16.008;2024-03-06T08:37:13;7.70;99.90
53498;DHT22;39382;47.168;16.008;2024-03-06T08:39:39;7.90;99.90
53498;DHT22;39382;47.168;16.008;2024-03-06T08:42:05;8.00;99.90
53498;DHT22;39382;47.168;16.008;2024-03-06T08:44:31;8.30;99.90
53498;DHT22;39382;47.168;16.008;2024-03-06T08:46:56;8.40;99.90
53498;DHT22;39382;47.168;16.008;2024-03-06T08:49:22;8.50;99.90
53498;DHT22;39382;47.168;16.008;2024-03-06T08:51:48;8.70;99.90
53498;DHT22;39382;47.168;16.008;2024-03-06T08:54:14;8.80;99.90
53498;DHT22;39382;47.168;16.008;2024-03-06T08:56:39;9.00;99.90
53498;DHT22;39382;47.168;16.008;2024-03-06T08:59:05;9.10;99.90
53498;DHT22;39382;47.168;16.008;2024-03-06T09:01:30;9.20;99.90
53498;DHT22;39382;47.168;16.008;2024-03-06T09:03:56;9.30;99.90
53498;DHT22;39382;47.168;16.008;2024-03-06T09:06:23;9.40;99.90
53498;DHT22;39382;47.168;16.008;2024-03-06T09:08:48;9.50;99.90
53498;DHT22;39382;47.168;16.008;2024-03-06T09:11:14;9.60;99.90
53498;DHT22;39382;47.168;16.008;2024-03-06T09:13:39;9.70;99.90
53498;DHT22;39382;47.168;16.008;2024-03-06T09:16:05;9.90;99.90
53498;DHT22;39382;47.168;16.008;2024-03-06T09:18:31;10.00;99.90
53498;DHT22;39382;47.168;16.008;2024-03-06T09:20:57;10.00;99.90
53498;DHT22;39382;47.168;16.008;2024-03-06T09:23:22;10.10;99.90
53498;DHT22;39382;47.168;16.008;2024-03-06T09:25:48;10.20;99.90
53498;DHT22;39382;47.168;16.008;2024-03-06T09:28:14;10.20;99.90
53498;DHT22;39382;47.168;16.008;2024-03-06T09:30:40;10.20;99.90
53498;DHT22;39382;47.168;16.008;2024-03-06T09:33:07;10.10;99.90
53498;DHT22;39382;47.168;16.008;2024-03-06T09:35:32;10.10;99.90
53498;DHT22;39382;47.168;16.008;2024-03-06T09:37:58;10.20;99.90
53498;DHT22;39382;47.168;16.008;2024-03-06T09:40:24;10.30;96.60
53498;DHT22;39382;47.168;16.008;2024-03-06T09:42:50;10.40;95.50
53498;DHT22;39382;47.168;16.008;2024-03-06T09:45:17;10.40;95.60
53498;DHT22;39382;47.168;16.008;2024-03-06T09:47:43;10.60;94.20
53498;DHT22;39382;47.168;16.008;2024-03-06T09:50:10;10.70;93.70
53498;DHT22;39382;47.168;16.008;2024-03-06T09:52:36;10.60;92.30
53498;DHT22;39382;47.168;16.008;2024-03-06T09:55:02;10.60;92.90
53498;DHT22;39382;47.168;16.008;2024-03-06T09:57:29;10.80;92.60
53498;DHT22;39382;47.168;16.008;2024-03-06T09:59:55;10.90;92.10
53498;DHT22;39382;47.168;16.008;2024-03-06T10:02:38;11.10;91.10
53498;DHT22;39382;47.168;16.008;2024-03-06T10:05:04;11.20;90.80
53498;DHT22;39382;47.168;16.008;2024-03-06T10:07:31;11.30;90.30
53498;DHT22;39382;47.168;16.008;2024-03-06T10:09:57;11.40;90.50
53498;DHT22;39382;47.168;16.008;2024-03-06T10:12:22;11.50;90.60
53498;DHT22;39382;47.168;16.008;2024-03-06T10:14:52;11.50;90.10
53498;DHT22;39382;47.168;16.008;2024-03-06T10:17:21;11.50;89.70
53498;DHT22;39382;47.168;16.008;2024-03-06T10:19:52;11.60;89.00
53498;DHT22;39382;47.168;16.008;2024-03-06T10:22:20;11.60;86.50
53498;DHT22;39382;47.168;16.008;2024-03-06T10:24:49;11.60;85.30
53498;DHT22;39382;47.168;16.008;2024-03-06T10:27:16;11.70;85.50
53498;DHT22;39382;47.168;16.008;2024-03-06T10:29:42;11.70;88.80
53498;DHT22;39382;47.168;16.008;2024-03-06T10:32:08;11.70;85.40
53498;DHT22;39382;47.168;16.008;2024-03-06T10:34:34;11.60;84.40
53498;DHT22;39382;47.168;16.008;2024-03-06T10:37:02;11.80;85.20
53498;DHT22;39382;47.168;16.008;2024-03-06T10:39:30;12.00;86.60
53498;DHT22;39382;47.168;16.008;2024-03-06T10:42:02;12.00;82.60
53498;DHT22;39382;47.168;16.008;2024-03-06T10:44:27;12.00;82.10
53498;DHT22;39382;47.168;16.008;2024-03-06T10:47:02;11.90;81.20
53498;DHT22;39382;47.168;16.008;2024-03-06T10:49:29;12.00;81.90
53498;DHT22;39382;47.168;16.008;2024-03-06T10:52:00;12.00;81.50
53498;DHT22;39382;47.168;16.008;2024-03-06T10:54:30;12.20;82.10
53498;DHT22;39382;47.168;16.008;2024-03-06T10:56:56;12.30;82.00
53498;DHT22;39382;47.168;16.008;2024-03-06T10:59:25;12.50;82.50
53498;DHT22;39382;47.168;16.008;2024-03-06T11:01:55;12.50;79.50
53498;DHT22;39382;47.168;16.008;2024-03-06T11:04:40;12.40;79.20
53498;DHT22;39382;47.168;16.008;2024-03-06T11:07:06;12.40;78.70
53498;DHT22;39382;47.168;16.008;2024-03-06T11:09:37;12.40;81.10
53498;DHT22;39382;47.168;16.008;2024-03-06T11:12:07;12.40;79.30
53498;DHT22;39382;47.168;16.008;2024-03-06T11:14:36;12.30;77.90
53498;DHT22;39382;47.168;16.008;2024-03-06T11:17:09;12.50;81.90
53498;DHT22;39382;47.168;16.008;2024-03-06T11:28:17;12.50;80.50
53498;DHT22;39382;47.168;16.008;2024-03-06T11:31:03;12.60;78.30
53498;DHT22;39382;47.168;16.008;2024-03-06T11:41:26;13.40;74.30
53498;DHT22;39382;47.168;16.008;2024-03-06T11:43:53;13.30;70.50
53498;DHT22;39382;47.168;16.008;2024-03-06T11:46:21;13.20;72.10
53498;DHT22;39382;47.168;16.008;2024-03-06T11:48:53;13.10;69.70
53498;DHT22;39382;47.168;16.008;2024-03-06T11:51:20;13.00;69.80
53498;DHT22;39382;47.168;16.008;2024-03-06T11:53:49;13.00;71.40
53498;DHT22;39382;47.168;16.008;2024-03-06T11:56:15;13.10;70.70
53498;DHT22;39382;47.168;16.008;2024-03-06T11:58:40;13.30;70.90
53498;DHT22;39382;47.168;16.008;2024-03-06T12:01:06;13.30;70.90
53498;DHT22;39382;47.168;16.008;2024-03-06T12:03:32;13.30;69.50
53498;DHT22;39382;47.168;16.008;2024-03-06T12:05:58;13.30;69.60
53498;DHT22;39382;47.168;16.008;2024-03-06T12:08:24;13.30;68.80
53498;DHT22;39382;47.168;16.008;2024-03-06T12:10:50;13.30;67.80
53498;DHT22;39382;47.168;16.008;2024-03-06T12:13:16;13.30;68.70
53498;DHT22;39382;47.168;16.008;2024-03-06T12:15:44;13.50;69.90
53498;DHT22;39382;47.168;16.008;2024-03-06T12:18:11;13.50;69.20
53498;DHT22;39382;47.168;16.008;2024-03-06T12:20:42;13.60;67.20
53498;DHT22;39382;47.168;16.008;2024-03-06T12:23:22;13.60;72.50
53498;DHT22;39382;47.168;16.008;2024-03-06T12:25:48;13.90;66.70
53498;DHT22;39382;47.168;16.008;2024-03-06T12:28:14;13.90;66.00
53498;DHT22;39382;47.168;16.008;2024-03-06T12:30:43;13.90;64.00
53498;DHT22;39382;47.168;16.008;2024-03-06T12:33:10;14.00;64.10
53498;DHT22;39382;47.168;16.008;2024-03-06T12:35:40;14.00;65.70
53498;DHT22;39382;47.168;16.008;2024-03-06T12:38:15;14.00;63.80
53498;DHT22;39382;47.168;16.008;2024-03-06T12:40:41;13.80;63.40
53498;DHT22;39382;47.168;16.008;2024-03-06T12:43:07;13.90;64.90
53498;DHT22;39382;47.168;16.008;2024-03-06T12:45:34;14.00;63.70
53498;DHT22;39382;47.168;16.008;2024-03-06T12:48:00;14.10;62.20
53498;DHT22;39382;47.168;16.008;2024-03-06T12:50:26;14.10;63.50
53498;DHT22;39382;47.168;16.008;2024-03-06T12:52:52;14.00;62.00
53498;DHT22;39382;47.168;16.008;2024-03-06T12:55:18;14.00;63.00
53498;DHT22;39382;47.168;16.008;2024-03-06T12:57:45;14.00;61.30
53498;DHT22;39382;47.168;16.008;2024-03-06T13:00:11;14.00;62.50
53498;DHT22;39382;47.168;16.008;2024-03-06T13:02:45;14.10;60.60
53498;DHT22;39382;47.168;16.008;2024-03-06T13:05:11;13.90;59.30
53498;DHT22;39382;47.168;16.008;2024-03-06T13:07:37;13.70;62.00
53498;DHT22;39382;47.168;16.008;2024-03-06T13:10:03;13.60;60.60
53498;DHT22;39382;47.168;16.008;2024-03-06T13:12:29;13.60;61.70
53498;DHT22;39382;47.168;16.008;2024-03-06T13:14:54;13.60;61.10
53498;DHT22;39382;47.168;16.008;2024-03-06T13:17:20;13.60;62.90
53498;DHT22;39382;47.168;16.008;2024-03-06T13:19:46;13.60;63.60
53498;DHT22;39382;47.168;16.008;2024-03-06T13:22:11;13.60;63.80
53498;DHT22;39382;47.168;16.008;2024-03-06T13:24:37;13.60;62.50
53498;DHT22;39382;47.168;16.008;2024-03-06T13:27:04;13.50;62.10
53498;DHT22;39382;47.168;16.008;2024-03-06T13:29:29;13.50;62.70
53498;DHT22;39382;47.168;16.008;2024-03-06T13:31:55;13.60;62.80
53498;DHT22;39382;47.168;16.008;2024-03-06T13:34:21;13.70;62.70
53498;DHT22;39382;47.168;16.008;2024-03-06T13:36:47;13.70;62.30
53498;DHT22;39382;47.168;16.008;2024-03-06T13:39:13;13.70;62.70
53498;DHT22;39382;47.168;16.008;2024-03-06T13:41:40;13.70;62.10
53498;DHT22;39382;47.168;16.008;2024-03-06T13:44:06;13.80;62.20
53498;DHT22;39382;47.168;16.008;2024-03-06T13:46:33;13.80;61.40
53498;DHT22;39382;47.168;16.008;2024-03-06T13:48:59;13.70;61.10
53498;DHT22;39382;47.168;16.008;2024-03-06T13:51:26;13.70;62.10
53498;DHT22;39382;47.168;16.008;2024-03-06T13:53:51;13.70;62.00
53498;DHT22;39382;47.168;16.008;2024-03-06T13:56:17;13.70;61.00
53498;DHT22;39382;47.168;16.008;2024-03-06T13:58:43;13.70;61.40
53498;DHT22;39382;47.168;16.008;2024-03-06T14:01:09;13.60;61.40
53498;DHT22;39382;47.168;16.008;2024-03-06T14:03:35;13.70;61.20
53498;DHT22;39382;47.168;16.008;2024-03-06T14:06:03;13.60;61.00
53498;DHT22;39382;47.168;16.008;2024-03-06T14:08:29;13.60;62.50
53498;DHT22;39382;47.168;16.008;2024-03-06T14:10:54;13.60;60.50
53498;DHT22;39382;47.168;16.008;2024-03-06T14:13:20;13.60;61.70
53498;DHT22;39382;47.168;16.008;2024-03-06T14:15:46;13.60;62.00
53498;DHT22;39382;47.168;16.008;2024-03-06T14:18:13;13.70;61.60
53498;DHT22;39382;47.168;16.008;2024-03-06T14:20:39;13.50;59.80
53498;DHT22;39382;47.168;16.008;2024-03-06T14:23:05;13.60;60.00
53498;DHT22;39382;47.168;16.008;2024-03-06T14:25:31;13.50;60.00
53498;DHT22;39382;47.168;16.008;2024-03-06T14:28:00;13.40;59.80
53498;DHT22;39382;47.168;16.008;2024-03-06T14:30:26;13.30;60.00
53498;DHT22;39382;47.168;16.008;2024-03-06T14:32:52;13.10;60.20
53498;DHT22;39382;47.168;16.008;2024-03-06T14:35:18;13.30;60.70
53498;DHT22;39382;47.168;16.008;2024-03-06T14:37:44;13.20;60.10
53498;DHT22;39382;47.168;16.008;2024-03-06T14:40:10;13.20;61.40
53498;DHT22;39382;47.168;16.008;2024-03-06T14:42:36;13.00;60.60
53498;DHT22;39382;47.168;16.008;2024-03-06T14:45:01;13.00;62.10
53498;DHT22;39382;47.168;16.008;2024-03-06T14:47:33;13.10;61.70
53498;DHT22;39382;47.168;16.008;2024-03-06T14:49:58;13.00;62.40
53498;DHT22;39382;47.168;16.008;2024-03-06T14:52:24;12.90;63.90
53498;DHT22;39382;47.168;16.008;2024-03-06T14:54:49;13.00;63.90
53498;DHT22;39382;47.168;16.008;2024-03-06T14:57:16;13.00;63.90
53498;DHT22;39382;47.168;16.008;2024-03-06T14:59:41;12.90;63.40
53498;DHT22;39382;47.168;16.008;2024-03-06T15:02:07;12.80;63.20
53498;DHT22;39382;47.168;16.008;2024-03-06T15:04:33;12.80;68.60
53498;DHT22;39382;47.168;16.008;2024-03-06T15:06:58;13.10;73.70
53498;DHT22;39382;47.168;16.008;2024-03-06T15:09:25;13.20;68.90
53498;DHT22;39382;47.168;16.008;2024-03-06T15:11:52;13.20;66.20
53498;DHT22;39382;47.168;16.008;2024-03-06T15:14:20;12.80;63.50
53498;DHT22;39382;47.168;16.008;2024-03-06T15:16:46;12.70;65.40
53498;DHT22;39382;47.168;16.008;2024-03-06T15:19:13;12.60;65.50
53498;DHT22;39382;47.168;16.008;2024-03-06T15:21:38;12.30;67.00
53498;DHT22;39382;47.168;16.008;2024-03-06T15:24:04;12.30;67.60
53498;DHT22;39382;47.168;16.008;2024-03-06T15:26:30;12.20;67.70
53498;DHT22;39382;47.168;16.008;2024-03-06T15:28:56;12.10;68.20
53498;DHT22;39382;47.168;16.008;2024-03-06T15:31:22;12.10;68.80
53498;DHT22;39382;47.168;16.008;2024-03-06T15:33:47;11.90;69.00
53498;DHT22;39382;47.168;16.008;2024-03-06T15:36:14;11.80;69.90
53498;DHT22;39382;47.168;16.008;2024-03-06T15:38:40;11.80;70.00